sensor_id;sensor_type;location;lat;lon;timestamp;temperature;humidity
46037;DHT22;31769;49.304;8.428;2023-03-01T00:01:37;2.20;99.90
46037;DHT22;31769;49.304;8.428;2023-03-01T00:04:38;2.20;99.90
46037;DHT22;31769;49.304;8.428;2023-03-01T00:07:38;2.20;99.90
46037;DHT22;31769;49.304;8.428;2023-03-01T00:10:39;2.20;99.90
46037;DHT22;31769;49.304;8.428;2023-03-01T00:13:41;2.20;99.90
46037;DHT22;31769;49.304;8.428;2023-03-01T00:16:44;2.10;99.90
46037;DHT22;31769;49.304;8.428;2023-03-01T00:19:44;2.10;99.90
46037;DHT22;31769;49.304;8.428;2023-03-01T00:22:45;2.00;99.90
46037;DHT22;31769;49.304;8.428;2023-03-01T00:25:46;2.00;99.90
46037;DHT22;31769;49.304;8.428;2023-03-01T00:28:47;2.00;99.90
46037;DHT22;31769;49.304;8.428;2023-03-01T00:31:48;2.00;99.90
46037;DHT22;31769;49.304;8.428;2023-03-01T00:34:49;2.00;99.90
46037;DHT22;31769;49.304;8.428;2023-03-01T00:37:54;2.10;99.90
46037;DHT22;31769;49.304;8.428;2023-03-01T00:41:06;2.10;99.90
46037;DHT22;31769;49.304;8.428;2023-03-01T00:44:08;2.10;99.90
46037;DHT22;31769;49.304;8.428;2023-03-01T00:47:09;2.10;99.90
46037;DHT22;31769;49.304;8.428;2023-03-01T00:50:10;2.10;99.90
46037;DHT22;31769;49.304;8.428;2023-03-01T00:53:11;2.10;99.90
46037;DHT22;31769;49.304;8.428;2023-03-01T00:56:13;2.10;99.90
46037;DHT22;31769;49.304;8.428;2023-03-01T00:59:14;2.10;99.90
46037;DHT22;31769;49.304;8.428;2023-03-01T01:02:15;2.00;99.90
46037;DHT22;31769;49.304;8.428;2023-03-01T01:05:16;2.00;99.90
46037;DHT22;31769;49.304;8.428;2023-03-01T01:08:21;1.90;99.90
46037;DHT22;31769;49.304;8.428;2023-03-01T01:11:24;1.80;99.90
46037;DHT22;31769;49.304;8.428;2023-03-01T01:14:24;1.80;99.90
46037;DHT22;31769;49.304;8.428;2023-03-01T01:17:25;1.80;99.90
46037;DHT22;31769;49.304;8.428;2023-03-01T01:20:26;1.80;99.90
46037;DHT22;31769;49.304;8.428;2023-03-01T01:23:27;1.70;99.90
46037;DHT22;31769;49.304;8.428;2023-03-01T01:26:30;1.80;99.90
46037;DHT22;31769;49.304;8.428;2023-03-01T01:29:31;1.80;99.90
46037;DHT22;31769;49.304;8.428;2023-03-01T01:32:31;1.80;99.90
46037;DHT22;31769;49.304;8.428;2023-03-01T01:35:32;1.80;99.90
46037;DHT22;31769;49.304;8.428;2023-03-01T01:38:33;1.80;99.90
46037;DHT22;31769;49.304;8.428;2023-03-01T01:41:35;1.80;99.90
46037;DHT22;31769;49.304;8.428;2023-03-01T01:44:35;1.70;99.90
46037;DHT22;31769;49.304;8.428;2023-03-01T01:47:36;1.70;99.90
46037;DHT22;31769;49.304;8.428;2023-03-01T01:50:39;1.60;99.90
46037;DHT22;31769;49.304;8.428;2023-03-01T01:53:42;1.50;99.90
46037;DHT22;31769;49.304;8.428;2023-03-01T01:56:49;1.50;99.90
46037;DHT22;31769;49.304;8.428;2023-03-01T01:59:54;1.40;99.90
46037;DHT22;31769;49.304;8.428;2023-03-01T02:03:04;1.50;99.90
46037;DHT22;31769;49.304;8.428;2023-03-01T02:06:18;1.50;99.90
46037;DHT22;31769;49.304;8.428;2023-03-01T02:09:20;1.50;99.90
46037;DHT22;31769;49.304;8.428;2023-03-01T02:12:24;1.50;99.90
46037;DHT22;31769;49.304;8.428;2023-03-01T02:15:25;1.50;99.90
46037;DHT22;31769;49.304;8.428;2023-03-01T02:18:27;1.50;99.90
46037;DHT22;31769;49.304;8.428;2023-03-01T02:21:37;1.50;99.90
46037;DHT22;31769;49.304;8.428;2023-03-01T02:31:19;1.50;99.90
46037;DHT22;31769;49.304;8.428;2023-03-01T02:34:39;1.50;99.90
46037;DHT22;31769;49.304;8.428;2023-03-01T02:37:41;1.50;99.90
46037;DHT22;31769;49.304;8.428;2023-03-01T02:40:42;1.50;99.90
46037;DHT22;31769;49.304;8.428;2023-03-01T02:43:45;1.50;99.90
46037;DHT22;31769;49.304;8.428;2023-03-01T02:46:51;1.50;99.90
46037;DHT22;31769;49.304;8.428;2023-03-01T02:49:52;1.60;99.90
46037;DHT22;31769;49.304;8.428;2023-03-01T02:55:57;1.60;99.90
46037;DHT22;31769;49.304;8.428;2023-03-01T02:58:59;1.50;99.90
46037;DHT22;31769;49.304;8.428;2023-03-01T03:02:02;1.50;99.90
46037;DHT22;31769;49.304;8.428;2023-03-01T03:05:15;2.80;99.90
46037;DHT22;31769;49.304;8.428;2023-03-01T03:08:16;1.40;99.90
46037;DHT22;31769;49.304;8.428;2023-03-01T03:11:25;1.30;99.90
46037;DHT22;31769;49.304;8.428;2023-03-01T03:14:26;1.20;99.90
46037;DHT22;31769;49.304;8.428;2023-03-01T03:17:26;1.20;99.90
46037;DHT22;31769;49.304;8.428;2023-03-01T03:20:28;1.10;99.90
46037;DHT22;31769;49.304;8.428;2023-03-01T03:23:29;1.10;99.90
46037;DHT22;31769;49.304;8.428;2023-03-01T03:26:31;1.00;99.90
46037;DHT22;31769;49.304;8.428;2023-03-01T03:29:32;0.80;99.90
46037;DHT22;31769;49.304;8.428;2023-03-01T03:32:33;0.60;99.90
46037;DHT22;31769;49.304;8.428;2023-03-01T03:35:39;0.50;99.90
46037;DHT22;31769;49.304;8.428;2023-03-01T03:38:40;0.50;99.90
46037;DHT22;31769;49.304;8.428;2023-03-01T03:41:41;0.40;99.90
46037;DHT22;31769;49.304;8.428;2023-03-01T03:44:41;0.40;99.90
46037;DHT22;31769;49.304;8.428;2023-03-01T03:47:43;0.40;99.90
46037;DHT22;31769;49.304;8.428;2023-03-01T03:50:48;0.50;99.90
46037;DHT22;31769;49.304;8.428;2023-03-01T03:53:49;0.50;99.90
46037;DHT22;31769;49.304;8.428;2023-03-01T03:56:50;0.50;99.90
46037;DHT22;31769;49.304;8.428;2023-03-01T03:59:51;0.50;99.90
46037;DHT22;31769;49.304;8.428;2023-03-01T04:02:52;0.50;99.90
46037;DHT22;31769;49.304;8.428;2023-03-01T04:06:00;0.40;99.90
46037;DHT22;31769;49.304;8.428;2023-03-01T04:09:00;0.40;99.90
46037;DHT22;31769;49.304;8.428;2023-03-01T04:12:02;0.40;99.90
46037;DHT22;31769;49.304;8.428;2023-03-01T04:15:05;0.40;99.90
46037;DHT22;31769;49.304;8.428;2023-03-01T04:18:15;0.40;99.90
46037;DHT22;31769;49.304;8.428;2023-03-01T04:21:16;0.40;99.90
46037;DHT22;31769;49.304;8.428;2023-03-01T04:24:16;0.30;99.90
46037;DHT22;31769;49.304;8.428;2023-03-01T04:27:17;0.30;99.90
46037;DHT22;31769;49.304;8.428;2023-03-01T04:30:18;0.30;99.90
46037;DHT22;31769;49.304;8.428;2023-03-01T04:33:19;0.30;99.90
46037;DHT22;31769;49.304;8.428;2023-03-01T04:36:23;0.30;99.90
46037;DHT22;31769;49.304;8.428;2023-03-01T04:39:24;0.20;99.90
46037;DHT22;31769;49.304;8.428;2023-03-01T04:42:25;0.20;99.90
46037;DHT22;31769;49.304;8.428;2023-03-01T04:45:26;0.30;99.90
46037;DHT22;31769;49.304;8.428;2023-03-01T04:48:26;0.30;99.90
46037;DHT22;31769;49.304;8.428;2023-03-01T04:51:27;0.30;99.90
46037;DHT22;31769;49.304;8.428;2023-03-01T04:54:29;0.40;99.90
46037;DHT22;31769;49.304;8.428;2023-03-01T04:57:30;0.40;99.90
46037;DHT22;31769;49.304;8.428;2023-03-01T05:00:31;0.40;99.90
46037;DHT22;31769;49.304;8.428;2023-03-01T05:03:32;0.40;99.90
46037;DHT22;31769;49.304;8.428;2023-03-01T05:06:32;0.40;99.90
46037;DHT22;31769;49.304;8.428;2023-03-01T05:09:34;0.50;99.90
46037;DHT22;31769;49.304;8.428;2023-03-01T05:12:35;0.50;99.90
46037;DHT22;31769;49.304;8.428;2023-03-01T05:15:37;0.50;99.90
46037;DHT22;31769;49.304;8.428;2023-03-01T05:18:38;0.50;99.90
46037;DHT22;31769;49.304;8.428;2023-03-01T05:21:39;0.80;99.90
46037;DHT22;31769;49.304;8.428;2023-03-01T05:25:00;0.40;99.90
46037;DHT22;31769;49.304;8.428;2023-03-01T05:28:02;0.40;99.90
46037;DHT22;31769;49.304;8.428;2023-03-01T05:31:05;0.40;99.90
46037;DHT22;31769;49.304;8.428;2023-03-01T05:34:09;0.50;99.90
46037;DHT22;31769;49.304;8.428;2023-03-01T05:37:13;0.50;99.90
46037;DHT22;31769;49.304;8.428;2023-03-01T05:40:20;0.40;99.90
46037;DHT22;31769;49.304;8.428;2023-03-01T05:43:21;0.50;99.90
46037;DHT22;31769;49.304;8.428;2023-03-01T05:46:21;0.50;99.90
46037;DHT22;31769;49.304;8.428;2023-03-01T05:49:24;0.50;99.90
46037;DHT22;31769;49.304;8.428;2023-03-01T05:52:26;0.60;99.90
46037;DHT22;31769;49.304;8.428;2023-03-01T05:55:28;0.70;99.90
46037;DHT22;31769;49.304;8.428;2023-03-01T05:58:29;0.50;99.90
46037;DHT22;31769;49.304;8.428;2023-03-01T06:01:30;0.50;99.90
46037;DHT22;31769;49.304;8.428;2023-03-01T06:04:31;0.50;99.90
46037;DHT22;31769;49.304;8.428;2023-03-01T06:07:32;0.60;99.90
46037;DHT22;31769;49.304;8.428;2023-03-01T06:10:32;0.60;99.90
46037;DHT22;31769;49.304;8.428;2023-03-01T06:13:33;0.70;99.90
46037;DHT22;31769;49.304;8.428;2023-03-01T06:16:34;0.70;99.90
46037;DHT22;31769;49.304;8.428;2023-03-01T06:19:34;0.70;99.90
46037;DHT22;31769;49.304;8.428;2023-03-01T06:22:35;0.70;99.90
46037;DHT22;31769;49.304;8.428;2023-03-01T06:25:37;0.80;99.90
46037;DHT22;31769;49.304;8.428;2023-03-01T06:28:37;0.80;99.90
46037;DHT22;31769;49.304;8.428;2023-03-01T06:31:38;0.80;99.90
46037;DHT22;31769;49.304;8.428;2023-03-01T06:34:39;0.80;99.90
46037;DHT22;31769;49.304;8.428;2023-03-01T06:37:40;0.80;99.90
46037;DHT22;31769;49.304;8.428;2023-03-01T06:40:41;0.70;99.90
46037;DHT22;31769;49.304;8.428;2023-03-01T06:43:42;0.80;99.90
46037;DHT22;31769;49.304;8.428;2023-03-01T06:46:43;0.90;99.90
46037;DHT22;31769;49.304;8.428;2023-03-01T06:49:43;1.00;99.90
46037;DHT22;31769;49.304;8.428;2023-03-01T06:52:44;1.10;99.90
46037;DHT22;31769;49.304;8.428;2023-03-01T06:55:45;1.10;99.90
46037;DHT22;31769;49.304;8.428;2023-03-01T06:58:46;1.20;99.90
46037;DHT22;31769;49.304;8.428;2023-03-01T07:01:46;1.50;99.90
46037;DHT22;31769;49.304;8.428;2023-03-01T07:04:49;1.60;99.90
46037;DHT22;31769;49.304;8.428;2023-03-01T07:07:50;1.70;99.90
46037;DHT22;31769;49.304;8.428;2023-03-01T07:11:00;1.60;99.90
46037;DHT22;31769;49.304;8.428;2023-03-01T07:14:02;1.60;99.90
46037;DHT22;31769;49.304;8.428;2023-03-01T07:17:03;1.60;99.90
46037;DHT22;31769;49.304;8.428;2023-03-01T07:20:04;1.70;99.90
46037;DHT22;31769;49.304;8.428;2023-03-01T07:23:06;1.70;99.90
46037;DHT22;31769;49.304;8.428;2023-03-01T07:26:07;1.70;99.90
46037;DHT22;31769;49.304;8.428;2023-03-01T07:29:09;1.70;99.90
46037;DHT22;31769;49.304;8.428;2023-03-01T07:32:10;1.80;99.90
46037;DHT22;31769;49.304;8.428;2023-03-01T07:35:11;1.90;99.90
46037;DHT22;31769;49.304;8.428;2023-03-01T07:38:12;2.10;99.90
46037;DHT22;31769;49.304;8.428;2023-03-01T07:41:13;2.10;99.90
46037;DHT22;31769;49.304;8.428;2023-03-01T07:44:14;2.20;99.90
46037;DHT22;31769;49.304;8.428;2023-03-01T07:47:16;2.40;99.90
46037;DHT22;31769;49.304;8.428;2023-03-01T07:50:18;2.50;99.90
46037;DHT22;31769;49.304;8.428;2023-03-01T07:53:18;2.60;99.90
46037;DHT22;31769;49.304;8.428;2023-03-01T07:56:19;2.70;99.90
46037;DHT22;31769;49.304;8.428;2023-03-01T07:59:21;2.80;99.90
46037;DHT22;31769;49.304;8.428;2023-03-01T08:02:24;2.90;99.90
46037;DHT22;31769;49.304;8.428;2023-03-01T08:05:24;2.90;99.90
46037;DHT22;31769;49.304;8.428;2023-03-01T08:08:25;3.00;99.90
46037;DHT22;31769;49.304;8.428;2023-03-01T08:11:26;3.10;99.90
46037;DHT22;31769;49.304;8.428;2023-03-01T08:14:28;3.20;99.90
46037;DHT22;31769;49.304;8.428;2023-03-01T08:17:29;3.20;99.90
46037;DHT22;31769;49.304;8.428;2023-03-01T08:20:29;3.30;99.90
46037;DHT22;31769;49.304;8.428;2023-03-01T08:23:30;3.40;99.90
46037;DHT22;31769;49.304;8.428;2023-03-01T08:26:31;3.50;99.90
46037;DHT22;31769;49.304;8.428;2023-03-01T08:29:33;3.60;99.90
46037;DHT22;31769;49.304;8.428;2023-03-01T08:32:38;3.80;99.90
46037;DHT22;31769;49.304;8.428;2023-03-01T08:35:39;3.90;99.90
46037;DHT22;31769;49.304;8.428;2023-03-01T08:38:39;3.90;99.90
46037;DHT22;31769;49.304;8.428;2023-03-01T08:41:40;4.00;99.90
46037;DHT22;31769;49.304;8.428;2023-03-01T08:44:41;4.10;99.90
46037;DHT22;31769;49.304;8.428;2023-03-01T08:47:42;4.10;99.90
46037;DHT22;31769;49.304;8.428;2023-03-01T08:50:42;4.30;99.90
46037;DHT22;31769;49.304;8.428;2023-03-01T08:53:44;4.40;99.90
46037;DHT22;31769;49.304;8.428;2023-03-01T08:56:45;4.40;99.90
46037;DHT22;31769;49.304;8.428;2023-03-01T08:59:45;4.60;99.90
46037;DHT22;31769;49.304;8.428;2023-03-01T09:02:46;4.70;99.90
46037;DHT22;31769;49.304;8.428;2023-03-01T09:05:47;4.70;99.90
46037;DHT22;31769;49.304;8.428;2023-03-01T09:08:50;4.80;99.90
46037;DHT22;31769;49.304;8.428;2023-03-01T09:11:51;5.00;99.90
46037;DHT22;31769;49.304;8.428;2023-03-01T09:14:52;5.00;99.90
46037;DHT22;31769;49.304;8.428;2023-03-01T09:17:52;4.90;99.90
46037;DHT22;31769;49.304;8.428;2023-03-01T09:21:00;5.10;99.90
46037;DHT22;31769;49.304;8.428;2023-03-01T09:24:00;5.20;99.90
46037;DHT22;31769;49.304;8.428;2023-03-01T09:27:01;5.30;99.90
46037;DHT22;31769;49.304;8.428;2023-03-01T09:30:03;5.40;99.90
46037;DHT22;31769;49.304;8.428;2023-03-01T09:33:04;5.60;99.90
46037;DHT22;31769;49.304;8.428;2023-03-01T09:36:07;5.80;99.90
46037;DHT22;31769;49.304;8.428;2023-03-01T09:39:08;5.80;99.90
46037;DHT22;31769;49.304;8.428;2023-03-01T09:42:12;6.00;99.90
46037;DHT22;31769;49.304;8.428;2023-03-01T09:45:25;6.40;99.90
46037;DHT22;31769;49.304;8.428;2023-03-01T09:48:37;6.80;99.90
46037;DHT22;31769;49.304;8.428;2023-03-01T09:51:39;6.90;99.90
46037;DHT22;31769;49.304;8.428;2023-03-01T09:54:39;7.20;99.90
46037;DHT22;31769;49.304;8.428;2023-03-01T09:57:49;7.30;98.50
46037;DHT22;31769;49.304;8.428;2023-03-01T10:00:51;7.20;96.50
46037;DHT22;31769;49.304;8.428;2023-03-01T10:07:54;6.90;96.10
46037;DHT22;31769;49.304;8.428;2023-03-01T10:11:01;6.70;96.70
46037;DHT22;31769;49.304;8.428;2023-03-01T10:17:33;6.80;96.60
46037;DHT22;31769;49.304;8.428;2023-03-01T10:24:08;7.30;95.90
46037;DHT22;31769;49.304;8.428;2023-03-01T10:27:18;7.30;95.30
46037;DHT22;31769;49.304;8.428;2023-03-01T10:30:29;7.40;94.80
46037;DHT22;31769;49.304;8.428;2023-03-01T10:33:36;7.40;96.00
46037;DHT22;31769;49.304;8.428;2023-03-01T10:36:39;7.40;95.10
46037;DHT22;31769;49.304;8.428;2023-03-01T10:43:11;7.40;94.60
46037;DHT22;31769;49.304;8.428;2023-03-01T10:46:33;7.60;93.70
46037;DHT22;31769;49.304;8.428;2023-03-01T10:49:35;7.70;93.80
46037;DHT22;31769;49.304;8.428;2023-03-01T10:52:37;7.80;93.80
46037;DHT22;31769;49.304;8.428;2023-03-01T10:55:40;7.90;93.60
46037;DHT22;31769;49.304;8.428;2023-03-01T10:59:01;8.00;93.60
46037;DHT22;31769;49.304;8.428;2023-03-01T11:02:20;8.20;93.90
46037;DHT22;31769;49.304;8.428;2023-03-01T11:05:23;8.50;92.40
46037;DHT22;31769;49.304;8.428;2023-03-01T11:08:36;8.70;91.90
46037;DHT22;31769;49.304;8.428;2023-03-01T11:11:37;8.70;91.10
46037;DHT22;31769;49.304;8.428;2023-03-01T11:14:39;8.50;91.80
46037;DHT22;31769;49.304;8.428;2023-03-01T11:17:46;8.50;92.00
46037;DHT22;31769;49.304;8.428;2023-03-01T11:20:47;8.70;91.40
46037;DHT22;31769;49.304;8.428;2023-03-01T11:23:49;9.00;90.90
46037;DHT22;31769;49.304;8.428;2023-03-01T11:26:54;9.00;90.00
46037;DHT22;31769;49.304;8.428;2023-03-01T11:30:12;9.20;90.40
46037;DHT22;31769;49.304;8.428;2023-03-01T11:33:37;9.40;90.00
46037;DHT22;31769;49.304;8.428;2023-03-01T11:36:56;9.90;86.30
46037;DHT22;31769;49.304;8.428;2023-03-01T11:40:15;10.20;86.20
46037;DHT22;31769;49.304;8.428;2023-03-01T11:56:42;12.40;72.50
46037;DHT22;31769;49.304;8.428;2023-03-01T12:06:35;14.00;66.40
46037;DHT22;31769;49.304;8.428;2023-03-01T12:13:13;15.70;60.80
46037;DHT22;31769;49.304;8.428;2023-03-01T12:23:29;22.30;45.60
46037;DHT22;31769;49.304;8.428;2023-03-01T12:50:26;27.10;35.80
46037;DHT22;31769;49.304;8.428;2023-03-01T12:53:34;28.60;35.00
46037;DHT22;31769;49.304;8.428;2023-03-01T12:56:36;29.50;34.30
46037;DHT22;31769;49.304;8.428;2023-03-01T12:59:47;30.50;33.80
46037;DHT22;31769;49.304;8.428;2023-03-01T13:13:23;28.40;32.60
46037;DHT22;31769;49.304;8.428;2023-03-01T13:19:30;26.90;33.70
46037;DHT22;31769;49.304;8.428;2023-03-01T13:22:36;26.80;34.40
46037;DHT22;31769;49.304;8.428;2023-03-01T13:28:59;26.70;33.70
46037;DHT22;31769;49.304;8.428;2023-03-01T13:32:01;27.30;33.70
46037;DHT22;31769;49.304;8.428;2023-03-01T13:44:39;28.40;32.60
46037;DHT22;31769;49.304;8.428;2023-03-01T13:47:44;27.80;33.20
46037;DHT22;31769;49.304;8.428;2023-03-01T13:50:59;25.60;35.10
46037;DHT22;31769;49.304;8.428;2023-03-01T13:54:01;25.10;35.40
46037;DHT22;31769;49.304;8.428;2023-03-01T13:57:02;25.40;35.10
46037;DHT22;31769;49.304;8.428;2023-03-01T14:00:03;26.80;33.90
46037;DHT22;31769;49.304;8.428;2023-03-01T14:03:15;27.60;33.70
46037;DHT22;31769;49.304;8.428;2023-03-01T14:06:24;28.90;32.80
46037;DHT22;31769;49.304;8.428;2023-03-01T14:09:27;28.30;32.60
46037;DHT22;31769;49.304;8.428;2023-03-01T14:19:17;25.80;34.40
46037;DHT22;31769;49.304;8.428;2023-03-01T14:22:40;26.50;33.70
46037;DHT22;31769;49.304;8.428;2023-03-01T14:25:54;26.00;33.80
46037;DHT22;31769;49.304;8.428;2023-03-01T14:28:55;24.70;34.60
46037;DHT22;31769;49.304;8.428;2023-03-01T14:32:12;22.90;36.90
46037;DHT22;31769;49.304;8.428;2023-03-01T14:35:34;23.00;36.80
46037;DHT22;31769;49.304;8.428;2023-03-01T14:38:38;25.20;35.00
46037;DHT22;31769;49.304;8.428;2023-03-01T14:41:39;25.20;34.80
46037;DHT22;31769;49.304;8.428;2023-03-01T14:44:44;24.00;35.40
46037;DHT22;31769;49.304;8.428;2023-03-01T14:47:47;24.00;35.70
46037;DHT22;31769;49.304;8.428;2023-03-01T14:50:49;22.80;36.60
46037;DHT22;31769;49.304;8.428;2023-03-01T14:53:50;23.10;36.60
46037;DHT22;31769;49.304;8.428;2023-03-01T14:56:54;23.50;36.40
46037;DHT22;31769;49.304;8.428;2023-03-01T14:59:59;23.70;36.60
46037;DHT22;31769;49.304;8.428;2023-03-01T15:03:23;25.60;35.00
46037;DHT22;31769;49.304;8.428;2023-03-01T15:06:24;25.70;34.20
46037;DHT22;31769;49.304;8.428;2023-03-01T15:09:25;27.20;33.80
46037;DHT22;31769;49.304;8.428;2023-03-01T15:15:34;27.40;33.80
46037;DHT22;31769;49.304;8.428;2023-03-01T15:18:35;29.60;32.40
46037;DHT22;31769;49.304;8.428;2023-03-01T15:21:38;29.50;31.50
46037;DHT22;31769;49.304;8.428;2023-03-01T15:24:39;28.40;32.70
46037;DHT22;31769;49.304;8.428;2023-03-01T15:27:45;28.00;33.00
46037;DHT22;31769;49.304;8.428;2023-03-01T15:30:53;28.70;32.60
46037;DHT22;31769;49.304;8.428;2023-03-01T15:34:28;28.80;32.10
46037;DHT22;31769;49.304;8.428;2023-03-01T15:37:45;27.70;33.10
46037;DHT22;31769;49.304;8.428;2023-03-01T15:40:50;28.70;33.40
46037;DHT22;31769;49.304;8.428;2023-03-01T15:43:52;29.60;33.60
46037;DHT22;31769;49.304;8.428;2023-03-01T15:46:56;30.20;32.30
46037;DHT22;31769;49.304;8.428;2023-03-01T15:49:58;30.00;31.80
46037;DHT22;31769;49.304;8.428;2023-03-01T15:53:01;30.30;32.20
46037;DHT22;31769;49.304;8.428;2023-03-01T15:56:04;30.20;32.30
46037;DHT22;31769;49.304;8.428;2023-03-01T15:59:09;29.90;32.20
46037;DHT22;31769;49.304;8.428;2023-03-01T16:02:12;29.50;32.00
46037;DHT22;31769;49.304;8.428;2023-03-01T16:05:20;29.30;32.10
46037;DHT22;31769;49.304;8.428;2023-03-01T16:08:22;28.00;32.80
46037;DHT22;31769;49.304;8.428;2023-03-01T16:11:22;27.30;33.10
46037;DHT22;31769;49.304;8.428;2023-03-01T16:14:23;27.30;33.30
46037;DHT22;31769;49.304;8.428;2023-03-01T16:17:24;27.00;33.60
46037;DHT22;31769;49.304;8.428;2023-03-01T16:20:27;26.30;33.70
46037;DHT22;31769;49.304;8.428;2023-03-01T16:23:28;25.70;34.30
46037;DHT22;31769;49.304;8.428;2023-03-01T16:26:28;24.90;34.90
46037;DHT22;31769;49.304;8.428;2023-03-01T16:29:29;24.50;35.70
46037;DHT22;31769;49.304;8.428;2023-03-01T16:32:30;24.10;36.20
46037;DHT22;31769;49.304;8.428;2023-03-01T16:35:30;23.30;36.90
46037;DHT22;31769;49.304;8.428;2023-03-01T16:38:31;22.50;37.50
46037;DHT22;31769;49.304;8.428;2023-03-01T16:41:32;21.80;38.10
46037;DHT22;31769;49.304;8.428;2023-03-01T16:44:33;20.80;39.10
46037;DHT22;31769;49.304;8.428;2023-03-01T16:47:34;20.10;40.20
46037;DHT22;31769;49.304;8.428;2023-03-01T16:50:34;19.20;41.10
46037;DHT22;31769;49.304;8.428;2023-03-01T16:53:36;18.30;42.40
46037;DHT22;31769;49.304;8.428;2023-03-01T16:56:37;17.40;44.10
46037;DHT22;31769;49.304;8.428;2023-03-01T16:59:40;16.60;45.40
46037;DHT22;31769;49.304;8.428;2023-03-01T17:02:41;15.70;46.50
46037;DHT22;31769;49.304;8.428;2023-03-01T17:05:42;14.80;48.00
46037;DHT22;31769;49.304;8.428;2023-03-01T17:08:43;13.30;50.00
46037;DHT22;31769;49.304;8.428;2023-03-01T17:11:43;12.20;52.40
46037;DHT22;31769;49.304;8.428;2023-03-01T17:14:44;11.30;54.00
46037;DHT22;31769;49.304;8.428;2023-03-01T17:17:44;10.70;55.50
46037;DHT22;31769;49.304;8.428;2023-03-01T17:20:45;10.40;56.70
46037;DHT22;31769;49.304;8.428;2023-03-01T17:23:46;10.10;57.20
46037;DHT22;31769;49.304;8.428;2023-03-01T17:26:47;9.80;58.20
46037;DHT22;31769;49.304;8.428;2023-03-01T17:29:48;9.50;58.90
46037;DHT22;31769;49.304;8.428;2023-03-01T17:32:49;9.40;59.80
46037;DHT22;31769;49.304;8.428;2023-03-01T17:35:50;9.20;60.40
46037;DHT22;31769;49.304;8.428;2023-03-01T17:38:51;9.00;61.10
46037;DHT22;31769;49.304;8.428;2023-03-01T17:41:52;8.80;61.90
46037;DHT22;31769;49.304;8.428;2023-03-01T17:44:53;9.10;62.40
46037;DHT22;31769;49.304;8.428;2023-03-01T17:47:54;8.70;62.80
46037;DHT22;31769;49.304;8.428;2023-03-01T17:50:54;8.70;63.00
46037;DHT22;31769;49.304;8.428;2023-03-01T17:53:55;8.60;63.20
46037;DHT22;31769;49.304;8.428;2023-03-01T17:56:56;8.50;63.90
46037;DHT22;31769;49.304;8.428;2023-03-01T17:59:58;8.50;64.50
46037;DHT22;31769;49.304;8.428;2023-03-01T18:02:59;8.50;64.80
46037;DHT22;31769;49.304;8.428;2023-03-01T18:05:59;8.50;65.60
46037;DHT22;31769;49.304;8.428;2023-03-01T18:09:00;8.40;66.10
46037;DHT22;31769;49.304;8.428;2023-03-01T18:12:01;8.40;67.20
46037;DHT22;31769;49.304;8.428;2023-03-01T18:15:01;8.30;67.50
46037;DHT22;31769;49.304;8.428;2023-03-01T18:18:02;8.20;68.60
46037;DHT22;31769;49.304;8.428;2023-03-01T18:21:04;8.20;69.10
46037;DHT22;31769;49.304;8.428;2023-03-01T18:24:05;8.20;69.70
46037;DHT22;31769;49.304;8.428;2023-03-01T18:27:06;8.10;70.30
46037;DHT22;31769;49.304;8.428;2023-03-01T18:30:07;8.00;71.20
46037;DHT22;31769;49.304;8.428;2023-03-01T18:33:08;7.90;71.80
46037;DHT22;31769;49.304;8.428;2023-03-01T18:36:24;7.90;72.60
46037;DHT22;31769;49.304;8.428;2023-03-01T18:39:25;7.80;73.20
46037;DHT22;31769;49.304;8.428;2023-03-01T18:42:26;7.80;74.10
46037;DHT22;31769;49.304;8.428;2023-03-01T18:45:30;7.60;75.40
46037;DHT22;31769;49.304;8.428;2023-03-01T18:48:31;7.60;76.70
46037;DHT22;31769;49.304;8.428;2023-03-01T18:51:32;7.50;78.00
46037;DHT22;31769;49.304;8.428;2023-03-01T18:54:34;7.40;78.70
46037;DHT22;31769;49.304;8.428;2023-03-01T18:57:35;7.30;79.40
46037;DHT22;31769;49.304;8.428;2023-03-01T19:00:36;7.30;80.20
46037;DHT22;31769;49.304;8.428;2023-03-01T19:03:36;7.20;81.30
46037;DHT22;31769;49.304;8.428;2023-03-01T19:06:37;7.20;82.40
46037;DHT22;31769;49.304;8.428;2023-03-01T19:09:40;7.10;83.20
46037;DHT22;31769;49.304;8.428;2023-03-01T19:12:41;7.00;84.60
46037;DHT22;31769;49.304;8.428;2023-03-01T19:15:42;7.40;86.00
46037;DHT22;31769;49.304;8.428;2023-03-01T19:18:43;6.80;86.90
46037;DHT22;31769;49.304;8.428;2023-03-01T19:21:49;6.70;88.80
46037;DHT22;31769;49.304;8.428;2023-03-01T19:24:50;6.60;90.20
46037;DHT22;31769;49.304;8.428;2023-03-01T19:27:50;6.50;91.00
46037;DHT22;31769;49.304;8.428;2023-03-01T19:30:51;6.40;91.70
46037;DHT22;31769;49.304;8.428;2023-03-01T19:33:57;6.30;92.40
46037;DHT22;31769;49.304;8.428;2023-03-01T19:36:58;6.20;93.40
46037;DHT22;31769;49.304;8.428;2023-03-01T19:39:58;6.20;93.90
46037;DHT22;31769;49.304;8.428;2023-03-01T19:42:59;6.20;94.40
46037;DHT22;31769;49.304;8.428;2023-03-01T19:46:00;6.60;95.00
46037;DHT22;31769;49.304;8.428;2023-03-01T19:49:01;6.10;95.40
46037;DHT22;31769;49.304;8.428;2023-03-01T19:52:03;6.10;96.00
46037;DHT22;31769;49.304;8.428;2023-03-01T19:55:04;6.00;96.20
46037;DHT22;31769;49.304;8.428;2023-03-01T19:58:05;6.00;96.80
46037;DHT22;31769;49.304;8.428;2023-03-01T20:01:18;5.90;97.30
46037;DHT22;31769;49.304;8.428;2023-03-01T20:04:19;5.90;97.90
46037;DHT22;31769;49.304;8.428;2023-03-01T20:07:23;6.20;98.40
46037;DHT22;31769;49.304;8.428;2023-03-01T20:10:24;5.70;98.80
46037;DHT22;31769;49.304;8.428;2023-03-01T20:13:28;5.60;99.50
46037;DHT22;31769;49.304;8.428;2023-03-01T20:16:31;5.50;99.90
46037;DHT22;31769;49.304;8.428;2023-03-01T20:19:32;5.50;99.90
46037;DHT22;31769;49.304;8.428;2023-03-01T20:22:42;5.20;99.90
46037;DHT22;31769;49.304;8.428;2023-03-01T20:25:43;5.40;99.90
46037;DHT22;31769;49.304;8.428;2023-03-01T20:28:45;5.50;99.90
46037;DHT22;31769;49.304;8.428;2023-03-01T20:31:46;5.50;99.90
46037;DHT22;31769;49.304;8.428;2023-03-01T20:34:48;5.40;99.90
46037;DHT22;31769;49.304;8.428;2023-03-01T20:37:50;5.40;99.90
46037;DHT22;31769;49.304;8.428;2023-03-01T20:41:05;5.50;99.90
46037;DHT22;31769;49.304;8.428;2023-03-01T20:44:06;5.70;99.90
46037;DHT22;31769;49.304;8.428;2023-03-01T20:47:11;5.20;99.90
46037;DHT22;31769;49.304;8.428;2023-03-01T20:50:12;5.30;99.90
46037;DHT22;31769;49.304;8.428;2023-03-01T20:53:13;5.20;99.90
46037;DHT22;31769;49.304;8.428;2023-03-01T20:56:15;5.20;99.90
46037;DHT22;31769;49.304;8.428;2023-03-01T20:59:34;5.40;99.90
46037;DHT22;31769;49.304;8.428;2023-03-01T21:02:37;5.20;99.90
46037;DHT22;31769;49.304;8.428;2023-03-01T21:05:38;5.20;99.90
46037;DHT22;31769;49.304;8.428;2023-03-01T21:08:38;5.10;99.90
46037;DHT22;31769;49.304;8.428;2023-03-01T21:11:39;5.10;99.90
46037;DHT22;31769;49.304;8.428;2023-03-01T21:14:40;5.10;99.90
46037;DHT22;31769;49.304;8.428;2023-03-01T21:17:43;5.00;99.90
46037;DHT22;31769;49.304;8.428;2023-03-01T21:20:45;5.00;99.90
46037;DHT22;31769;49.304;8.428;2023-03-01T21:23:46;5.00;99.90
46037;DHT22;31769;49.304;8.428;2023-03-01T21:26:47;4.90;99.90